createdAt,value
2019-03-23T00:00:12.208Z,99.90
2019-03-23T00:02:42.210Z,99.90
2019-03-23T00:05:12.517Z,99.90
2019-03-23T00:07:42.493Z,99.90
2019-03-23T00:10:12.626Z,99.90
2019-03-23T00:12:42.803Z,99.90
2019-03-23T00:15:13.772Z,99.90
2019-03-23T00:18:02.600Z,99.90
2019-03-23T00:20:33.702Z,99.90
2019-03-23T00:23:03.729Z,99.90
2019-03-23T00:25:35.345Z,99.90
2019-03-23T00:28:05.361Z,99.90
2019-03-23T00:30:35.493Z,99.90
2019-03-23T00:33:05.492Z,99.90
2019-03-23T00:35:35.469Z,99.90
2019-03-23T00:38:06.118Z,99.90
2019-03-23T00:40:36.174Z,99.90
2019-03-23T00:43:06.419Z,99.90
2019-03-23T00:45:36.561Z,99.90
2019-03-23T00:48:06.569Z,99.90
2019-03-23T00:50:36.599Z,99.90
2019-03-23T00:53:06.743Z,99.90
2019-03-23T00:55:36.747Z,99.90
2019-03-23T00:58:06.738Z,99.90
2019-03-23T01:00:36.756Z,99.90
2019-03-23T01:03:07.100Z,99.90
2019-03-23T01:05:37.297Z,99.90
2019-03-23T01:08:07.309Z,99.90
2019-03-23T01:10:37.347Z,99.90
2019-03-23T01:13:07.379Z,99.90
2019-03-23T01:15:37.486Z,99.90
2019-03-23T01:18:07.549Z,99.90
2019-03-23T01:20:37.670Z,99.90
2019-03-23T01:23:07.701Z,99.90
2019-03-23T01:25:37.875Z,99.90
2019-03-23T01:28:07.877Z,99.90
2019-03-23T01:30:37.883Z,99.90
2019-03-23T01:33:07.955Z,99.90
2019-03-23T01:35:37.977Z,99.90
2019-03-23T01:38:08.005Z,99.90
2019-03-23T01:40:38.099Z,99.90
2019-03-23T01:43:08.131Z,99.90
2019-03-23T01:45:38.151Z,99.90
2019-03-23T01:48:08.366Z,99.90
2019-03-23T01:50:38.437Z,99.90
2019-03-23T01:53:08.456Z,99.90
2019-03-23T01:55:38.517Z,99.90
2019-03-23T01:58:08.590Z,99.90
2019-03-23T02:00:38.727Z,99.90
2019-03-23T02:03:08.896Z,99.90
2019-03-23T02:05:39.164Z,99.90
2019-03-23T02:08:09.158Z,99.90
2019-03-23T02:10:39.200Z,99.90
2019-03-23T02:13:09.196Z,99.90
2019-03-23T02:15:39.243Z,99.90
2019-03-23T02:18:09.276Z,99.90
2019-03-23T02:20:39.367Z,99.90
2019-03-23T02:23:09.516Z,99.90
2019-03-23T02:25:39.574Z,99.90
2019-03-23T02:28:09.790Z,99.90
2019-03-23T02:30:40.150Z,99.90
2019-03-23T02:33:10.201Z,99.90
2019-03-23T02:35:40.273Z,99.90
2019-03-23T02:38:10.314Z,99.90
2019-03-23T02:40:40.329Z,99.90
2019-03-23T02:43:10.366Z,99.90
2019-03-23T02:45:40.410Z,99.90
2019-03-23T02:48:10.636Z,99.90
2019-03-23T02:50:40.903Z,99.90
2019-03-23T02:53:10.903Z,99.90
2019-03-23T02:55:40.912Z,99.90
2019-03-23T02:58:10.969Z,99.90
2019-03-23T03:00:41.010Z,99.90
2019-03-23T03:03:11.035Z,99.90
2019-03-23T03:05:41.102Z,99.90
2019-03-23T03:08:11.109Z,99.90
2019-03-23T03:10:42.300Z,99.90
2019-03-23T03:13:12.342Z,99.90
2019-03-23T03:15:42.395Z,99.90
2019-03-23T03:18:12.399Z,99.90
2019-03-23T03:20:42.485Z,99.90
2019-03-23T03:23:12.640Z,99.90
2019-03-23T03:25:42.739Z,99.90
2019-03-23T03:28:12.751Z,99.90
2019-03-23T03:30:42.795Z,99.90
2019-03-23T03:33:12.821Z,99.90
2019-03-23T03:35:42.927Z,99.90
2019-03-23T03:38:12.973Z,99.90
2019-03-23T03:40:42.986Z,99.90
2019-03-23T03:43:13.009Z,99.90
2019-03-23T03:45:43.065Z,99.90
2019-03-23T03:48:13.078Z,99.90
2019-03-23T03:50:43.086Z,99.90
2019-03-23T03:53:13.140Z,99.90
2019-03-23T03:55:43.194Z,99.90
2019-03-23T03:58:13.261Z,99.90
2019-03-23T04:00:43.270Z,99.90
2019-03-23T04:03:13.339Z,99.90
2019-03-23T04:05:43.354Z,99.90
2019-03-23T04:08:13.370Z,99.90
2019-03-23T04:10:43.418Z,99.90
2019-03-23T04:13:13.434Z,99.90
2019-03-23T04:15:43.446Z,99.90
2019-03-23T04:18:13.506Z,99.90
2019-03-23T04:20:43.530Z,99.90
2019-03-23T04:23:13.616Z,99.90
2019-03-23T04:25:43.688Z,99.90
2019-03-23T04:28:14.127Z,99.90
2019-03-23T04:30:44.140Z,99.90
2019-03-23T04:33:14.207Z,99.90
2019-03-23T04:35:44.218Z,99.90
2019-03-23T04:38:22.558Z,99.90
2019-03-23T04:40:45.957Z,99.90
2019-03-23T04:43:15.992Z,99.90
2019-03-23T04:45:46.054Z,99.90
2019-03-23T04:48:16.103Z,99.90
2019-03-23T04:50:46.092Z,99.90
2019-03-23T04:53:16.447Z,99.90
2019-03-23T04:55:46.855Z,99.90
2019-03-23T04:58:16.937Z,99.90
2019-03-23T05:00:47.379Z,99.90
2019-03-23T05:03:17.446Z,99.90
2019-03-23T05:05:47.539Z,99.90
2019-03-23T05:08:17.685Z,99.90
2019-03-23T05:10:47.966Z,99.90
2019-03-23T05:13:18.101Z,99.90
2019-03-23T05:15:48.559Z,99.90
2019-03-23T05:18:18.578Z,99.90
2019-03-23T05:20:48.706Z,99.90
2019-03-23T05:23:18.803Z,99.90
2019-03-23T05:25:48.902Z,99.90
2019-03-23T05:28:19.208Z,99.90
2019-03-23T05:30:49.394Z,99.90
2019-03-23T05:33:19.549Z,99.90
2019-03-23T05:35:49.614Z,99.90
2019-03-23T05:38:19.738Z,99.90
2019-03-23T05:40:49.882Z,99.90
2019-03-23T05:43:20.078Z,99.90
2019-03-23T05:45:50.513Z,99.90
2019-03-23T05:48:22.132Z,99.90
2019-03-23T05:50:52.606Z,99.90
2019-03-23T05:53:22.685Z,99.90
2019-03-23T05:55:52.800Z,99.90
2019-03-23T05:58:22.945Z,99.90
2019-03-23T06:00:53.086Z,99.90
2019-03-23T06:03:23.268Z,99.90
2019-03-23T06:05:53.562Z,99.90
2019-03-23T06:08:23.604Z,99.90
2019-03-23T06:10:53.649Z,99.90
2019-03-23T06:13:23.942Z,99.90
2019-03-23T06:15:54.016Z,99.90
2019-03-23T06:18:24.291Z,99.90
2019-03-23T06:20:54.405Z,99.90
2019-03-23T06:23:24.701Z,99.90
2019-03-23T06:25:55.060Z,99.90
2019-03-23T06:28:25.166Z,99.80
2019-03-23T06:30:55.284Z,98.60
2019-03-23T06:33:25.423Z,97.40
2019-03-23T06:35:55.595Z,97.20
2019-03-23T06:38:25.686Z,95.90
2019-03-23T06:40:55.716Z,95.10
2019-03-23T06:43:25.846Z,93.90
2019-03-23T06:45:56.112Z,91.80
2019-03-23T06:48:26.191Z,91.20
2019-03-23T06:50:56.318Z,89.10
2019-03-23T06:53:26.366Z,84.70
2019-03-23T06:55:56.396Z,84.80
2019-03-23T06:58:26.472Z,82.80
2019-03-23T07:00:56.518Z,81.80
2019-03-23T07:03:26.796Z,76.40
2019-03-23T07:05:56.912Z,75.40
2019-03-23T07:08:31.875Z,71.30
2019-03-23T07:10:59.719Z,69.20
2019-03-23T07:13:29.916Z,64.90
2019-03-23T07:16:00.008Z,60.40
2019-03-23T07:18:30.234Z,57.80
2019-03-23T07:21:00.332Z,58.40
2019-03-23T07:23:30.871Z,54.60
2019-03-23T07:26:00.968Z,54.20
2019-03-23T07:28:31.015Z,52.90
2019-03-23T07:31:01.040Z,52.50
2019-03-23T07:33:31.162Z,52.40
2019-03-23T07:36:01.466Z,51.30
2019-03-23T07:38:31.477Z,50.90
2019-03-23T07:41:01.795Z,50.50
2019-03-23T07:43:31.916Z,50.00
2019-03-23T07:46:01.917Z,51.30
2019-03-23T07:48:32.390Z,50.40
2019-03-23T07:51:02.429Z,49.10
2019-03-23T07:53:32.586Z,49.20
2019-03-23T07:56:02.766Z,46.60
2019-03-23T07:58:32.977Z,46.20
2019-03-23T08:01:02.983Z,45.70
2019-03-23T08:03:32.949Z,44.80
2019-03-23T08:06:03.009Z,45.30
2019-03-23T08:08:33.075Z,42.90
2019-03-23T08:11:03.072Z,43.40
2019-03-23T08:13:33.283Z,42.10
2019-03-23T08:16:03.420Z,42.00
2019-03-23T08:18:33.385Z,43.40
2019-03-23T08:21:03.872Z,40.50
2019-03-23T08:23:33.887Z,40.60
2019-03-23T08:26:03.954Z,41.60
2019-03-23T08:28:33.984Z,40.30
2019-03-23T08:31:03.981Z,40.50
2019-03-23T08:33:34.026Z,39.90
2019-03-23T08:36:05.970Z,39.30
2019-03-23T08:38:36.090Z,38.40
2019-03-23T08:41:06.337Z,39.00
2019-03-23T08:43:36.577Z,38.50
2019-03-23T08:46:06.713Z,39.10
2019-03-23T08:48:37.122Z,39.20
2019-03-23T08:51:07.114Z,38.50
2019-03-23T08:53:37.232Z,38.00
2019-03-23T08:56:07.476Z,38.00
2019-03-23T08:58:35.284Z,38.30
2019-03-23T09:01:05.309Z,39.50
2019-03-23T09:03:37.232Z,39.70
2019-03-23T09:06:07.318Z,39.00
2019-03-23T09:08:37.516Z,38.50
2019-03-23T09:11:07.801Z,38.10
2019-03-23T09:13:40.811Z,38.50
2019-03-23T09:16:09.542Z,38.80
2019-03-23T09:18:39.621Z,38.40
2019-03-23T09:21:14.251Z,39.50
2019-03-23T09:23:44.367Z,39.60
2019-03-23T09:26:14.476Z,38.00
2019-03-23T09:28:44.551Z,38.70
2019-03-23T09:31:14.691Z,38.00
2019-03-23T09:33:44.860Z,38.20
2019-03-23T09:36:15.081Z,37.70
2019-03-23T09:38:45.245Z,37.70
2019-03-23T09:41:15.315Z,37.30
2019-03-23T09:43:45.392Z,37.40
2019-03-23T09:46:15.418Z,38.60
2019-03-23T09:48:45.511Z,38.80
2019-03-23T09:51:15.556Z,38.60
2019-03-23T09:53:45.580Z,39.10
2019-03-23T09:56:15.645Z,38.50
2019-03-23T09:58:46.059Z,39.00
2019-03-23T10:01:16.063Z,39.80
2019-03-23T10:03:46.255Z,39.20
2019-03-23T10:06:16.364Z,40.00
2019-03-23T10:08:46.586Z,39.30
2019-03-23T10:11:16.743Z,39.60
2019-03-23T10:13:46.755Z,40.70
2019-03-23T10:16:17.000Z,39.80
2019-03-23T10:18:47.170Z,39.50
2019-03-23T10:21:17.227Z,40.70
2019-03-23T10:23:47.511Z,40.50
2019-03-23T10:26:17.596Z,41.00
2019-03-23T10:28:47.635Z,41.40
2019-03-23T10:31:17.661Z,41.20
2019-03-23T10:33:47.673Z,41.10
2019-03-23T10:36:17.762Z,42.10
2019-03-23T10:38:47.816Z,41.70
2019-03-23T10:41:17.837Z,43.10
2019-03-23T10:43:48.149Z,42.50
2019-03-23T10:46:18.350Z,43.10
2019-03-23T10:48:48.520Z,43.60
2019-03-23T10:51:18.705Z,43.90
2019-03-23T10:53:48.781Z,43.90
2019-03-23T10:56:19.111Z,43.00
2019-03-23T10:58:49.244Z,42.40
2019-03-23T11:01:19.521Z,42.60
2019-03-23T11:03:49.568Z,43.20
2019-03-23T11:06:19.757Z,43.30
2019-03-23T11:08:50.032Z,43.80
2019-03-23T11:11:20.187Z,43.20
2019-03-23T11:13:50.331Z,42.80
2019-03-23T11:16:20.708Z,42.40
2019-03-23T11:18:50.716Z,42.20
2019-03-23T11:21:20.861Z,42.70
2019-03-23T11:23:51.162Z,41.40
2019-03-23T11:26:21.197Z,42.00
2019-03-23T11:28:51.214Z,42.00
2019-03-23T11:31:21.205Z,42.40
2019-03-23T11:33:51.396Z,42.50
2019-03-23T11:36:21.433Z,42.30
2019-03-23T11:38:51.792Z,41.10
2019-03-23T11:41:21.829Z,41.00
2019-03-23T11:43:52.304Z,42.00
2019-03-23T11:46:22.432Z,42.20
2019-03-23T11:48:52.484Z,41.50
2019-03-23T11:51:23.079Z,40.90
2019-03-23T11:53:53.183Z,41.60
2019-03-23T11:56:23.697Z,41.40
2019-03-23T11:58:54.072Z,41.80
2019-03-23T12:01:24.256Z,42.60
2019-03-23T12:03:54.356Z,42.50
2019-03-23T12:06:24.422Z,41.40
2019-03-23T12:08:54.754Z,40.80
2019-03-23T12:11:24.865Z,40.60
2019-03-23T12:13:55.006Z,41.70
2019-03-23T12:16:25.044Z,40.80
2019-03-23T12:18:55.035Z,41.70
2019-03-23T12:21:25.184Z,40.90
2019-03-23T12:23:55.252Z,40.10
2019-03-23T12:26:25.297Z,40.20
2019-03-23T12:28:55.332Z,39.70
2019-03-23T12:31:25.430Z,38.50
2019-03-23T12:33:55.616Z,38.80
2019-03-23T12:36:25.923Z,40.30
2019-03-23T12:38:56.040Z,39.60
2019-03-23T12:41:26.067Z,39.40
2019-03-23T12:43:56.151Z,39.40
2019-03-23T12:46:26.164Z,39.20
2019-03-23T12:48:56.237Z,39.30
2019-03-23T12:51:26.375Z,38.80
2019-03-23T12:53:56.404Z,39.80
2019-03-23T12:56:26.448Z,39.50
2019-03-23T12:58:56.672Z,39.10
2019-03-23T13:01:26.844Z,39.70
2019-03-23T13:03:57.040Z,40.40
2019-03-23T13:06:27.080Z,39.90
2019-03-23T13:08:57.066Z,40.20
2019-03-23T13:11:34.920Z,39.80
2019-03-23T13:13:58.842Z,39.60
2019-03-23T13:16:32.253Z,40.30
2019-03-23T13:19:02.260Z,39.30
2019-03-23T13:21:32.512Z,40.50
2019-03-23T13:24:02.607Z,40.60
2019-03-23T13:26:32.767Z,40.40
2019-03-23T13:29:02.979Z,39.90
2019-03-23T13:31:33.113Z,40.30
2019-03-23T13:34:03.298Z,40.70
2019-03-23T13:36:33.532Z,40.40
2019-03-23T13:39:04.646Z,40.20
2019-03-23T13:41:41.200Z,39.50
2019-03-23T13:44:06.524Z,40.00
2019-03-23T13:46:36.721Z,40.00
2019-03-23T13:49:06.976Z,39.90
2019-03-23T13:51:37.029Z,40.40
2019-03-23T13:54:07.059Z,39.80
2019-03-23T13:56:37.297Z,40.20
2019-03-23T13:59:07.434Z,40.20
2019-03-23T14:01:37.601Z,40.30
2019-03-23T14:04:07.768Z,39.80
2019-03-23T14:06:38.009Z,40.60
2019-03-23T14:09:09.386Z,40.50
2019-03-23T14:11:39.687Z,41.30
2019-03-23T14:14:09.831Z,40.50
2019-03-23T14:16:39.838Z,40.60
2019-03-23T14:19:09.930Z,40.70
2019-03-23T14:21:40.119Z,41.50
2019-03-23T14:24:10.587Z,41.70
2019-03-23T14:26:40.628Z,42.00
2019-03-23T14:29:10.777Z,42.20
2019-03-23T14:31:40.825Z,42.20
2019-03-23T14:34:10.818Z,41.80
2019-03-23T14:36:40.910Z,41.80
2019-03-23T14:39:10.915Z,41.80
2019-03-23T14:41:40.939Z,42.30
2019-03-23T14:44:10.937Z,42.30
2019-03-23T14:46:41.042Z,43.00
2019-03-23T14:49:11.095Z,43.60
2019-03-23T14:51:41.115Z,43.40
2019-03-23T14:54:11.143Z,43.70
2019-03-23T14:56:41.184Z,44.10
2019-03-23T14:59:11.879Z,44.40
2019-03-23T15:01:41.882Z,44.60
2019-03-23T15:04:11.943Z,44.60
2019-03-23T15:06:41.988Z,44.60
2019-03-23T15:09:12.001Z,44.50
2019-03-23T15:11:42.168Z,44.50
2019-03-23T15:14:12.201Z,45.60
2019-03-23T15:16:42.225Z,46.20
2019-03-23T15:19:12.326Z,45.70
2019-03-23T15:21:42.340Z,46.40
2019-03-23T15:24:12.444Z,46.60
2019-03-23T15:26:42.723Z,46.30
2019-03-23T15:29:12.826Z,46.80
2019-03-23T15:31:42.948Z,47.60
2019-03-23T15:34:13.020Z,47.10
2019-03-23T15:36:43.030Z,47.20
2019-03-23T15:39:13.085Z,47.60
2019-03-23T15:41:43.144Z,48.00
2019-03-23T15:44:13.244Z,48.70
2019-03-23T15:46:43.343Z,48.90
2019-03-23T15:49:13.328Z,48.80
2019-03-23T15:51:43.359Z,48.80
2019-03-23T15:54:13.460Z,48.80
2019-03-23T15:56:43.906Z,49.10
2019-03-23T15:59:14.406Z,49.60
2019-03-23T16:01:44.454Z,50.20
2019-03-23T16:04:14.565Z,50.30
2019-03-23T16:06:44.585Z,50.80
2019-03-23T16:09:14.754Z,50.90
2019-03-23T16:11:44.870Z,51.20
2019-03-23T16:14:15.307Z,51.30
2019-03-23T16:16:45.362Z,51.50
2019-03-23T16:19:15.419Z,51.20
2019-03-23T16:21:45.658Z,51.90
2019-03-23T16:24:15.784Z,52.30
2019-03-23T16:26:45.812Z,53.00
2019-03-23T16:29:16.023Z,52.90
2019-03-23T16:31:46.047Z,53.70
2019-03-23T16:34:16.684Z,54.10
2019-03-23T16:36:46.804Z,54.70
2019-03-23T16:39:16.937Z,55.80
2019-03-23T16:41:47.355Z,56.40
2019-03-23T16:44:17.486Z,57.20
2019-03-23T16:46:47.591Z,58.20
2019-03-23T16:49:17.989Z,59.50
2019-03-23T16:51:48.065Z,60.30
2019-03-23T16:54:18.282Z,61.60
2019-03-23T16:56:48.495Z,62.50
2019-03-23T16:59:18.610Z,63.60
2019-03-23T17:01:49.017Z,65.20
2019-03-23T17:04:19.152Z,66.30
2019-03-23T17:06:49.247Z,67.30
2019-03-23T17:09:19.289Z,69.90
2019-03-23T17:11:49.516Z,70.90
2019-03-23T17:14:19.687Z,71.40
2019-03-23T17:16:49.955Z,72.70
2019-03-23T17:19:20.113Z,74.10
2019-03-23T17:21:50.228Z,74.70
2019-03-23T17:24:20.233Z,75.60
2019-03-23T17:26:50.235Z,78.00
2019-03-23T17:29:20.272Z,78.90
2019-03-23T17:31:50.265Z,81.10
2019-03-23T17:34:20.397Z,82.50
2019-03-23T17:36:50.650Z,84.00
2019-03-23T17:39:20.697Z,85.60
2019-03-23T17:41:52.329Z,86.00
2019-03-23T17:44:22.322Z,86.30
2019-03-23T17:46:52.390Z,86.40
2019-03-23T17:49:22.576Z,87.00
2019-03-23T17:51:52.589Z,87.00
2019-03-23T17:54:23.194Z,87.00
2019-03-23T17:56:54.054Z,87.30
2019-03-23T17:59:24.386Z,88.00
2019-03-23T18:01:54.466Z,88.90
2019-03-23T18:04:24.497Z,89.30
2019-03-23T18:06:54.535Z,90.10
2019-03-23T18:09:24.658Z,90.30
2019-03-23T18:11:54.721Z,90.50
2019-03-23T18:14:25.293Z,90.90
2019-03-23T18:16:55.356Z,91.20
2019-03-23T18:19:25.386Z,91.40
2019-03-23T18:21:55.444Z,91.30
2019-03-23T18:24:25.491Z,91.50
2019-03-23T18:26:55.548Z,91.60
2019-03-23T18:29:25.647Z,92.00
2019-03-23T18:31:55.747Z,91.80
2019-03-23T18:34:25.781Z,92.20
2019-03-23T18:36:56.810Z,92.40
2019-03-23T18:39:26.850Z,92.40
2019-03-23T18:41:56.879Z,92.30
2019-03-23T18:44:26.943Z,92.70
2019-03-23T18:46:57.056Z,92.40
2019-03-23T18:49:27.033Z,92.70
2019-03-23T18:51:57.092Z,92.60
2019-03-23T18:54:27.202Z,93.00
2019-03-23T18:56:57.633Z,92.90
2019-03-23T18:59:27.726Z,92.90
2019-03-23T19:01:57.741Z,93.10
2019-03-23T19:04:27.850Z,93.30
2019-03-23T19:06:57.856Z,93.50
2019-03-23T19:09:27.936Z,93.40
2019-03-23T19:11:58.043Z,93.50
2019-03-23T19:14:28.158Z,93.80
2019-03-23T19:16:58.377Z,93.80
2019-03-23T19:19:28.712Z,93.70
2019-03-23T19:21:59.132Z,93.90
2019-03-23T19:24:29.134Z,93.90
2019-03-23T19:26:59.227Z,93.50
2019-03-23T19:29:29.272Z,93.40
2019-03-23T19:32:01.844Z,94.00
2019-03-23T19:34:31.208Z,94.00
2019-03-23T19:37:01.225Z,94.20
2019-03-23T19:39:31.228Z,94.00
2019-03-23T19:42:01.263Z,94.00
2019-03-23T19:44:31.309Z,94.40
2019-03-23T19:47:01.354Z,94.20
2019-03-23T19:49:31.398Z,94.50
2019-03-23T19:52:03.260Z,94.60
2019-03-23T19:54:33.273Z,94.90
2019-03-23T19:57:03.301Z,95.00
2019-03-23T19:59:33.418Z,95.20
2019-03-23T20:02:03.655Z,95.40
2019-03-23T20:04:33.685Z,95.40
2019-03-23T20:07:03.713Z,95.20
2019-03-23T20:09:34.175Z,95.20
2019-03-23T20:12:06.332Z,95.50
2019-03-23T20:14:36.358Z,95.10
2019-03-23T20:17:06.445Z,95.00
2019-03-23T20:19:36.485Z,95.20
2019-03-23T20:22:06.543Z,95.40
2019-03-23T20:24:36.589Z,95.50
2019-03-23T20:27:06.848Z,95.50
2019-03-23T20:29:36.910Z,95.40
2019-03-23T20:32:06.980Z,95.80
2019-03-23T20:34:37.035Z,95.80
2019-03-23T20:37:08.296Z,95.80
2019-03-23T20:39:38.634Z,96.00
2019-03-23T20:42:08.637Z,96.20
2019-03-23T20:44:38.724Z,96.20
2019-03-23T20:47:08.938Z,96.30
2019-03-23T20:49:38.935Z,96.70
2019-03-23T20:52:09.053Z,96.70
2019-03-23T20:54:39.486Z,96.80
2019-03-23T20:57:10.721Z,97.10
2019-03-23T20:59:40.843Z,97.30
2019-03-23T21:02:10.992Z,97.30
2019-03-23T21:04:41.019Z,97.60
2019-03-23T21:07:11.071Z,97.70
2019-03-23T21:09:41.251Z,97.80
2019-03-23T21:12:11.456Z,97.90
2019-03-23T21:14:41.509Z,98.10
2019-03-23T21:17:13.455Z,98.30
2019-03-23T21:19:43.518Z,98.40
2019-03-23T21:22:13.479Z,98.50
2019-03-23T21:24:43.599Z,98.40
2019-03-23T21:27:13.692Z,98.40
2019-03-23T21:29:43.754Z,98.40
2019-03-23T21:32:13.783Z,98.80
2019-03-23T21:34:45.547Z,99.00
2019-03-23T21:37:16.803Z,99.30
2019-03-23T21:39:46.909Z,99.80
2019-03-23T21:42:16.977Z,99.80
2019-03-23T21:44:47.094Z,99.90
2019-03-23T21:47:17.322Z,99.90
2019-03-23T21:49:47.425Z,99.90
2019-03-23T21:52:17.453Z,99.90
2019-03-23T21:54:47.496Z,99.90
2019-03-23T21:57:17.520Z,99.90
2019-03-23T21:59:47.548Z,99.90
2019-03-23T22:02:17.576Z,99.90
2019-03-23T22:04:47.621Z,99.90
2019-03-23T22:07:17.809Z,99.90
2019-03-23T22:09:47.865Z,99.90
2019-03-23T22:12:17.889Z,99.90
2019-03-23T22:14:47.965Z,99.90
2019-03-23T22:17:18.024Z,99.90
2019-03-23T22:19:48.078Z,99.90
2019-03-23T22:22:18.107Z,99.90
2019-03-23T22:24:48.282Z,99.90
2019-03-23T22:27:19.285Z,99.90
2019-03-23T22:29:49.427Z,99.90
2019-03-23T22:32:19.655Z,99.90
2019-03-23T22:34:49.740Z,99.90
2019-03-23T22:37:19.795Z,99.90
2019-03-23T22:39:52.989Z,99.90
2019-03-23T22:42:23.028Z,99.90
2019-03-23T22:44:53.033Z,99.90
2019-03-23T22:47:23.081Z,99.90
2019-03-23T22:49:53.150Z,99.90
2019-03-23T22:52:23.289Z,99.90
2019-03-23T22:54:53.440Z,99.90
2019-03-23T22:57:23.511Z,99.90
2019-03-23T22:59:53.550Z,99.90
2019-03-23T23:02:23.655Z,99.90
2019-03-23T23:04:53.724Z,99.90
2019-03-23T23:07:23.762Z,99.90
2019-03-23T23:09:53.826Z,99.90
2019-03-23T23:12:23.895Z,99.90
2019-03-23T23:15:04.010Z,99.90
2019-03-23T23:17:25.568Z,99.90
2019-03-23T23:19:55.645Z,99.90
2019-03-23T23:22:25.637Z,99.90
2019-03-23T23:24:55.648Z,99.90
2019-03-23T23:27:25.729Z,99.90
2019-03-23T23:29:55.754Z,99.90
2019-03-23T23:32:25.770Z,99.90
2019-03-23T23:34:55.829Z,99.90
2019-03-23T23:37:25.859Z,99.90
2019-03-23T23:39:55.967Z,99.90
2019-03-23T23:42:26.165Z,99.90
2019-03-23T23:44:56.320Z,99.90
2019-03-23T23:47:26.547Z,99.90
2019-03-23T23:49:56.749Z,99.90
2019-03-23T23:52:26.735Z,99.90
2019-03-23T23:54:56.791Z,99.90
2019-03-23T23:57:27.343Z,99.90
2019-03-23T23:59:57.351Z,99.90
